sensor_id;sensor_type;location;lat;lon;timestamp;temperature;humidity
9666;DHT22;4871;52.004;5.924;2023-04-28T00:00:01;10.9;54.8
9666;DHT22;4871;52.004;5.924;2023-04-28T00:01:00;10.8;55.0
9666;DHT22;4871;52.004;5.924;2023-04-28T00:02:01;10.9;55.1
9666;DHT22;4871;52.004;5.924;2023-04-28T00:03:00;10.8;55.1
9666;DHT22;4871;52.004;5.924;2023-04-28T00:04:00;10.8;54.8
9666;DHT22;4871;52.004;5.924;2023-04-28T00:05:00;10.8;54.8
9666;DHT22;4871;52.004;5.924;2023-04-28T00:06:00;10.8;55.1
9666;DHT22;4871;52.004;5.924;2023-04-28T00:07:00;10.8;55.1
9666;DHT22;4871;52.004;5.924;2023-04-28T00:08:02;10.8;55.2
9666;DHT22;4871;52.004;5.924;2023-04-28T00:09:00;10.8;55.1
9666;DHT22;4871;52.004;5.924;2023-04-28T00:10:00;10.8;55.2
9666;DHT22;4871;52.004;5.924;2023-04-28T00:11:00;10.8;55.1
9666;DHT22;4871;52.004;5.924;2023-04-28T00:12:01;10.8;55.1
9666;DHT22;4871;52.004;5.924;2023-04-28T00:13:00;10.7;54.8
9666;DHT22;4871;52.004;5.924;2023-04-28T00:14:00;10.7;55.2
9666;DHT22;4871;52.004;5.924;2023-04-28T00:15:00;10.7;55.2
9666;DHT22;4871;52.004;5.924;2023-04-28T00:16:00;10.7;55.0
9666;DHT22;4871;52.004;5.924;2023-04-28T00:17:02;10.7;54.9
9666;DHT22;4871;52.004;5.924;2023-04-28T00:18:00;10.7;55.1
9666;DHT22;4871;52.004;5.924;2023-04-28T00:19:00;10.7;55.0
9666;DHT22;4871;52.004;5.924;2023-04-28T00:20:00;10.7;55.2
9666;DHT22;4871;52.004;5.924;2023-04-28T00:21:00;10.7;55.6
9666;DHT22;4871;52.004;5.924;2023-04-28T00:22:00;10.7;55.2
9666;DHT22;4871;52.004;5.924;2023-04-28T00:23:00;10.7;55.3
9666;DHT22;4871;52.004;5.924;2023-04-28T00:24:00;10.7;55.2
9666;DHT22;4871;52.004;5.924;2023-04-28T00:25:00;10.6;55.5
9666;DHT22;4871;52.004;5.924;2023-04-28T00:26:00;10.7;55.1
9666;DHT22;4871;52.004;5.924;2023-04-28T00:27:01;10.6;55.0
9666;DHT22;4871;52.004;5.924;2023-04-28T00:28:00;10.6;55.4
9666;DHT22;4871;52.004;5.924;2023-04-28T00:29:00;10.6;55.2
9666;DHT22;4871;52.004;5.924;2023-04-28T00:30:00;10.6;55.3
9666;DHT22;4871;52.004;5.924;2023-04-28T00:31:00;10.6;54.9
9666;DHT22;4871;52.004;5.924;2023-04-28T00:32:00;10.6;55.5
9666;DHT22;4871;52.004;5.924;2023-04-28T00:33:00;10.6;55.0
9666;DHT22;4871;52.004;5.924;2023-04-28T00:34:00;10.6;55.0
9666;DHT22;4871;52.004;5.924;2023-04-28T00:35:00;10.6;55.3
9666;DHT22;4871;52.004;5.924;2023-04-28T00:36:00;10.6;55.4
9666;DHT22;4871;52.004;5.924;2023-04-28T00:37:00;10.6;55.5
9666;DHT22;4871;52.004;5.924;2023-04-28T00:38:00;10.6;55.1
9666;DHT22;4871;52.004;5.924;2023-04-28T00:39:00;10.6;55.4
9666;DHT22;4871;52.004;5.924;2023-04-28T00:40:01;10.6;56.0
9666;DHT22;4871;52.004;5.924;2023-04-28T00:41:00;10.5;55.5
9666;DHT22;4871;52.004;5.924;2023-04-28T00:42:01;10.5;56.0
9666;DHT22;4871;52.004;5.924;2023-04-28T00:43:00;10.5;55.9
9666;DHT22;4871;52.004;5.924;2023-04-28T00:44:00;10.4;55.6
9666;DHT22;4871;52.004;5.924;2023-04-28T00:45:06;10.4;55.2
9666;DHT22;4871;52.004;5.924;2023-04-28T00:46:01;10.5;55.4
9666;DHT22;4871;52.004;5.924;2023-04-28T00:47:00;10.4;55.7
9666;DHT22;4871;52.004;5.924;2023-04-28T00:48:01;10.4;55.4
9666;DHT22;4871;52.004;5.924;2023-04-28T00:49:00;10.4;55.3
9666;DHT22;4871;52.004;5.924;2023-04-28T00:50:00;10.4;55.3
9666;DHT22;4871;52.004;5.924;2023-04-28T00:51:01;10.4;55.5
9666;DHT22;4871;52.004;5.924;2023-04-28T00:52:05;10.4;55.6
9666;DHT22;4871;52.004;5.924;2023-04-28T00:53:00;10.4;55.6
9666;DHT22;4871;52.004;5.924;2023-04-28T00:54:01;10.4;55.3
9666;DHT22;4871;52.004;5.924;2023-04-28T00:55:01;10.4;55.5
9666;DHT22;4871;52.004;5.924;2023-04-28T00:56:00;10.4;55.4
9666;DHT22;4871;52.004;5.924;2023-04-28T00:57:02;10.4;55.6
9666;DHT22;4871;52.004;5.924;2023-04-28T00:58:01;10.4;55.1
9666;DHT22;4871;52.004;5.924;2023-04-28T00:59:00;10.4;56.0
9666;DHT22;4871;52.004;5.924;2023-04-28T01:00:01;10.4;55.9
9666;DHT22;4871;52.004;5.924;2023-04-28T01:01:02;10.3;56.0
9666;DHT22;4871;52.004;5.924;2023-04-28T01:02:01;10.4;55.5
9666;DHT22;4871;52.004;5.924;2023-04-28T01:03:00;10.3;55.4
9666;DHT22;4871;52.004;5.924;2023-04-28T01:04:00;10.4;55.3
9666;DHT22;4871;52.004;5.924;2023-04-28T01:05:01;10.3;55.7
9666;DHT22;4871;52.004;5.924;2023-04-28T01:06:00;10.3;55.8
9666;DHT22;4871;52.004;5.924;2023-04-28T01:07:01;10.3;55.7
9666;DHT22;4871;52.004;5.924;2023-04-28T01:08:00;10.3;55.6
9666;DHT22;4871;52.004;5.924;2023-04-28T01:09:00;10.3;55.5
9666;DHT22;4871;52.004;5.924;2023-04-28T01:10:01;10.3;55.5
9666;DHT22;4871;52.004;5.924;2023-04-28T01:11:01;10.3;55.6
9666;DHT22;4871;52.004;5.924;2023-04-28T01:12:00;10.3;55.9
9666;DHT22;4871;52.004;5.924;2023-04-28T01:13:00;10.3;55.9
9666;DHT22;4871;52.004;5.924;2023-04-28T01:14:00;10.3;55.7
9666;DHT22;4871;52.004;5.924;2023-04-28T01:15:00;10.3;56.0
9666;DHT22;4871;52.004;5.924;2023-04-28T01:16:01;10.3;55.7
9666;DHT22;4871;52.004;5.924;2023-04-28T01:17:01;10.3;56.1
9666;DHT22;4871;52.004;5.924;2023-04-28T01:18:00;10.3;55.7
9666;DHT22;4871;52.004;5.924;2023-04-28T01:19:00;10.3;55.7
9666;DHT22;4871;52.004;5.924;2023-04-28T01:20:00;10.3;56.0
9666;DHT22;4871;52.004;5.924;2023-04-28T01:21:00;10.3;56.6
9666;DHT22;4871;52.004;5.924;2023-04-28T01:22:00;10.2;56.2
9666;DHT22;4871;52.004;5.924;2023-04-28T01:23:00;10.3;56.1
9666;DHT22;4871;52.004;5.924;2023-04-28T01:24:00;10.2;56.2
9666;DHT22;4871;52.004;5.924;2023-04-28T01:25:02;10.2;56.2
9666;DHT22;4871;52.004;5.924;2023-04-28T01:26:00;10.2;56.3
9666;DHT22;4871;52.004;5.924;2023-04-28T01:27:01;10.2;56.6
9666;DHT22;4871;52.004;5.924;2023-04-28T01:28:00;10.2;56.3
9666;DHT22;4871;52.004;5.924;2023-04-28T01:29:00;10.2;56.9
9666;DHT22;4871;52.004;5.924;2023-04-28T01:30:00;10.2;56.7
9666;DHT22;4871;52.004;5.924;2023-04-28T01:31:01;10.2;56.9
9666;DHT22;4871;52.004;5.924;2023-04-28T01:32:00;10.2;56.7
9666;DHT22;4871;52.004;5.924;2023-04-28T01:33:00;10.1;56.6
9666;DHT22;4871;52.004;5.924;2023-04-28T01:34:00;10.1;57.0
9666;DHT22;4871;52.004;5.924;2023-04-28T01:35:00;10.1;56.5
9666;DHT22;4871;52.004;5.924;2023-04-28T01:36:00;10.1;57.0
9666;DHT22;4871;52.004;5.924;2023-04-28T01:37:00;10.1;57.1
9666;DHT22;4871;52.004;5.924;2023-04-28T01:38:01;10.1;57.0
9666;DHT22;4871;52.004;5.924;2023-04-28T01:39:00;10.1;57.2
9666;DHT22;4871;52.004;5.924;2023-04-28T01:40:00;10.1;57.4
9666;DHT22;4871;52.004;5.924;2023-04-28T01:41:01;10.1;57.1
9666;DHT22;4871;52.004;5.924;2023-04-28T01:42:01;10.1;57.2
9666;DHT22;4871;52.004;5.924;2023-04-28T01:43:00;10.1;57.4
9666;DHT22;4871;52.004;5.924;2023-04-28T01:44:00;10.1;57.0
9666;DHT22;4871;52.004;5.924;2023-04-28T01:45:02;10.1;57.3
9666;DHT22;4871;52.004;5.924;2023-04-28T01:46:00;10.1;57.1
9666;DHT22;4871;52.004;5.924;2023-04-28T01:47:00;10.0;57.4
9666;DHT22;4871;52.004;5.924;2023-04-28T01:48:00;10.0;57.3
9666;DHT22;4871;52.004;5.924;2023-04-28T01:49:00;10.0;57.4
9666;DHT22;4871;52.004;5.924;2023-04-28T01:50:01;10.0;57.4
9666;DHT22;4871;52.004;5.924;2023-04-28T01:51:00;10.0;57.4
9666;DHT22;4871;52.004;5.924;2023-04-28T01:52:00;10.0;57.5
9666;DHT22;4871;52.004;5.924;2023-04-28T01:53:00;10.0;57.3
9666;DHT22;4871;52.004;5.924;2023-04-28T01:54:00;10.0;57.4
9666;DHT22;4871;52.004;5.924;2023-04-28T01:55:00;10.0;57.5
9666;DHT22;4871;52.004;5.924;2023-04-28T01:56:01;10.0;57.5
9666;DHT22;4871;52.004;5.924;2023-04-28T01:57:02;10.0;57.3
9666;DHT22;4871;52.004;5.924;2023-04-28T01:58:00;10.0;57.6
9666;DHT22;4871;52.004;5.924;2023-04-28T01:59:00;10.0;57.6
9666;DHT22;4871;52.004;5.924;2023-04-28T02:00:01;10.0;57.2
9666;DHT22;4871;52.004;5.924;2023-04-28T02:01:00;9.9;57.5
9666;DHT22;4871;52.004;5.924;2023-04-28T02:02:00;9.9;57.7
9666;DHT22;4871;52.004;5.924;2023-04-28T02:03:00;9.9;57.6
9666;DHT22;4871;52.004;5.924;2023-04-28T02:04:00;9.9;57.2
9666;DHT22;4871;52.004;5.924;2023-04-28T02:05:00;9.9;57.5
9666;DHT22;4871;52.004;5.924;2023-04-28T02:06:00;9.9;57.6
9666;DHT22;4871;52.004;5.924;2023-04-28T02:07:00;9.9;56.9
9666;DHT22;4871;52.004;5.924;2023-04-28T02:08:00;9.9;57.3
9666;DHT22;4871;52.004;5.924;2023-04-28T02:09:00;9.9;57.4
9666;DHT22;4871;52.004;5.924;2023-04-28T02:10:00;9.9;57.4
9666;DHT22;4871;52.004;5.924;2023-04-28T02:11:00;9.9;57.5
9666;DHT22;4871;52.004;5.924;2023-04-28T02:12:01;9.9;57.4
9666;DHT22;4871;52.004;5.924;2023-04-28T02:13:00;9.9;57.8
9666;DHT22;4871;52.004;5.924;2023-04-28T02:14:00;9.8;57.5
9666;DHT22;4871;52.004;5.924;2023-04-28T02:15:00;9.9;57.6
9666;DHT22;4871;52.004;5.924;2023-04-28T02:16:01;9.9;57.6
9666;DHT22;4871;52.004;5.924;2023-04-28T02:17:02;9.8;57.5
9666;DHT22;4871;52.004;5.924;2023-04-28T02:18:00;9.8;57.8
9666;DHT22;4871;52.004;5.924;2023-04-28T02:19:00;9.8;57.5
9666;DHT22;4871;52.004;5.924;2023-04-28T02:20:00;9.8;57.5
9666;DHT22;4871;52.004;5.924;2023-04-28T02:21:07;9.8;57.6
9666;DHT22;4871;52.004;5.924;2023-04-28T02:22:00;9.8;57.4
9666;DHT22;4871;52.004;5.924;2023-04-28T02:23:00;9.8;57.5
9666;DHT22;4871;52.004;5.924;2023-04-28T02:24:00;9.8;57.6
9666;DHT22;4871;52.004;5.924;2023-04-28T02:25:00;9.8;57.6
9666;DHT22;4871;52.004;5.924;2023-04-28T02:26:00;9.8;57.6
9666;DHT22;4871;52.004;5.924;2023-04-28T02:27:00;9.8;57.6
9666;DHT22;4871;52.004;5.924;2023-04-28T02:28:00;9.8;57.8
9666;DHT22;4871;52.004;5.924;2023-04-28T02:29:00;9.8;57.7
9666;DHT22;4871;52.004;5.924;2023-04-28T02:30:00;9.8;57.8
9666;DHT22;4871;52.004;5.924;2023-04-28T02:31:06;9.8;57.7
9666;DHT22;4871;52.004;5.924;2023-04-28T02:32:00;9.7;57.6
9666;DHT22;4871;52.004;5.924;2023-04-28T02:33:00;9.8;57.8
9666;DHT22;4871;52.004;5.924;2023-04-28T02:34:00;9.7;57.6
9666;DHT22;4871;52.004;5.924;2023-04-28T02:35:01;9.7;57.8
9666;DHT22;4871;52.004;5.924;2023-04-28T02:36:01;9.7;57.9
9666;DHT22;4871;52.004;5.924;2023-04-28T02:37:00;9.7;57.9
9666;DHT22;4871;52.004;5.924;2023-04-28T02:38:00;9.7;57.6
9666;DHT22;4871;52.004;5.924;2023-04-28T02:39:00;9.7;57.8
9666;DHT22;4871;52.004;5.924;2023-04-28T02:40:00;9.7;57.7
9666;DHT22;4871;52.004;5.924;2023-04-28T02:41:02;9.7;57.7
9666;DHT22;4871;52.004;5.924;2023-04-28T02:42:00;9.7;57.9
9666;DHT22;4871;52.004;5.924;2023-04-28T02:43:00;9.7;57.9
9666;DHT22;4871;52.004;5.924;2023-04-28T02:44:00;9.7;58.0
9666;DHT22;4871;52.004;5.924;2023-04-28T02:45:00;9.7;57.8
9666;DHT22;4871;52.004;5.924;2023-04-28T02:46:01;9.7;57.6
9666;DHT22;4871;52.004;5.924;2023-04-28T02:47:00;9.7;57.8
9666;DHT22;4871;52.004;5.924;2023-04-28T02:48:02;9.7;57.7
9666;DHT22;4871;52.004;5.924;2023-04-28T02:49:00;9.7;58.0
9666;DHT22;4871;52.004;5.924;2023-04-28T02:50:00;9.7;57.7
9666;DHT22;4871;52.004;5.924;2023-04-28T02:51:00;9.7;57.8
9666;DHT22;4871;52.004;5.924;2023-04-28T02:52:00;9.7;57.6
9666;DHT22;4871;52.004;5.924;2023-04-28T02:53:00;9.7;57.8
9666;DHT22;4871;52.004;5.924;2023-04-28T02:54:00;9.7;58.1
9666;DHT22;4871;52.004;5.924;2023-04-28T02:55:02;9.7;57.9
9666;DHT22;4871;52.004;5.924;2023-04-28T02:56:03;9.7;57.9
9666;DHT22;4871;52.004;5.924;2023-04-28T02:57:00;9.6;57.8
9666;DHT22;4871;52.004;5.924;2023-04-28T02:58:00;9.6;58.0
9666;DHT22;4871;52.004;5.924;2023-04-28T02:59:00;9.6;57.7
9666;DHT22;4871;52.004;5.924;2023-04-28T03:00:00;9.6;57.6
9666;DHT22;4871;52.004;5.924;2023-04-28T03:01:00;9.6;58.0
9666;DHT22;4871;52.004;5.924;2023-04-28T03:02:01;9.7;57.8
9666;DHT22;4871;52.004;5.924;2023-04-28T03:03:00;9.6;57.9
9666;DHT22;4871;52.004;5.924;2023-04-28T03:04:00;9.6;57.9
9666;DHT22;4871;52.004;5.924;2023-04-28T03:05:00;9.6;57.9
9666;DHT22;4871;52.004;5.924;2023-04-28T03:06:00;9.6;58.0
9666;DHT22;4871;52.004;5.924;2023-04-28T03:07:00;9.6;57.7
9666;DHT22;4871;52.004;5.924;2023-04-28T03:08:00;9.6;57.8
9666;DHT22;4871;52.004;5.924;2023-04-28T03:09:00;9.6;58.1
9666;DHT22;4871;52.004;5.924;2023-04-28T03:10:00;9.6;57.8
9666;DHT22;4871;52.004;5.924;2023-04-28T03:11:00;9.6;58.0
9666;DHT22;4871;52.004;5.924;2023-04-28T03:12:02;9.6;57.9
9666;DHT22;4871;52.004;5.924;2023-04-28T03:13:00;9.6;57.8
9666;DHT22;4871;52.004;5.924;2023-04-28T03:14:00;9.6;57.9
9666;DHT22;4871;52.004;5.924;2023-04-28T03:15:00;9.6;58.0
9666;DHT22;4871;52.004;5.924;2023-04-28T03:16:00;9.6;57.8
9666;DHT22;4871;52.004;5.924;2023-04-28T03:17:00;9.6;58.1
9666;DHT22;4871;52.004;5.924;2023-04-28T03:18:00;9.6;57.7
9666;DHT22;4871;52.004;5.924;2023-04-28T03:19:00;9.6;57.8
9666;DHT22;4871;52.004;5.924;2023-04-28T03:20:00;9.6;57.9
9666;DHT22;4871;52.004;5.924;2023-04-28T03:21:00;9.6;58.0
9666;DHT22;4871;52.004;5.924;2023-04-28T03:22:00;9.6;57.8
9666;DHT22;4871;52.004;5.924;2023-04-28T03:23:01;9.6;57.8
9666;DHT22;4871;52.004;5.924;2023-04-28T03:24:00;9.6;58.0
9666;DHT22;4871;52.004;5.924;2023-04-28T03:25:01;9.6;57.8
9666;DHT22;4871;52.004;5.924;2023-04-28T03:26:00;9.6;58.0
9666;DHT22;4871;52.004;5.924;2023-04-28T03:27:02;9.5;58.0
9666;DHT22;4871;52.004;5.924;2023-04-28T03:28:00;9.5;57.8
9666;DHT22;4871;52.004;5.924;2023-04-28T03:29:00;9.5;57.9
9666;DHT22;4871;52.004;5.924;2023-04-28T03:30:00;9.5;57.7
9666;DHT22;4871;52.004;5.924;2023-04-28T03:31:01;9.5;57.9
9666;DHT22;4871;52.004;5.924;2023-04-28T03:32:01;9.5;58.0
9666;DHT22;4871;52.004;5.924;2023-04-28T03:33:00;9.6;57.9
9666;DHT22;4871;52.004;5.924;2023-04-28T03:34:00;9.6;58.0
9666;DHT22;4871;52.004;5.924;2023-04-28T03:35:00;9.5;57.8
9666;DHT22;4871;52.004;5.924;2023-04-28T03:36:00;9.5;57.9
9666;DHT22;4871;52.004;5.924;2023-04-28T03:37:00;9.5;57.9
9666;DHT22;4871;52.004;5.924;2023-04-28T03:38:00;9.5;57.9
9666;DHT22;4871;52.004;5.924;2023-04-28T03:39:00;9.6;57.8
9666;DHT22;4871;52.004;5.924;2023-04-28T03:40:00;9.5;57.5
9666;DHT22;4871;52.004;5.924;2023-04-28T03:41:00;9.5;57.7
9666;DHT22;4871;52.004;5.924;2023-04-28T03:42:00;9.5;57.9
9666;DHT22;4871;52.004;5.924;2023-04-28T03:43:00;9.5;58.0
9666;DHT22;4871;52.004;5.924;2023-04-28T03:44:00;9.5;58.1
9666;DHT22;4871;52.004;5.924;2023-04-28T03:45:00;9.5;58.0
9666;DHT22;4871;52.004;5.924;2023-04-28T03:46:00;9.5;58.0
9666;DHT22;4871;52.004;5.924;2023-04-28T03:47:00;9.5;58.0
9666;DHT22;4871;52.004;5.924;2023-04-28T03:48:00;9.5;58.0
9666;DHT22;4871;52.004;5.924;2023-04-28T03:49:01;9.5;58.0
9666;DHT22;4871;52.004;5.924;2023-04-28T03:50:00;9.5;58.1
9666;DHT22;4871;52.004;5.924;2023-04-28T03:51:00;9.5;58.0
9666;DHT22;4871;52.004;5.924;2023-04-28T03:52:00;9.5;57.8
9666;DHT22;4871;52.004;5.924;2023-04-28T03:53:01;9.5;58.0
9666;DHT22;4871;52.004;5.924;2023-04-28T03:54:00;9.5;57.9
9666;DHT22;4871;52.004;5.924;2023-04-28T03:55:00;9.5;58.1
9666;DHT22;4871;52.004;5.924;2023-04-28T03:56:00;9.5;58.1
9666;DHT22;4871;52.004;5.924;2023-04-28T03:57:00;9.5;58.1
9666;DHT22;4871;52.004;5.924;2023-04-28T03:58:00;9.5;58.0
9666;DHT22;4871;52.004;5.924;2023-04-28T03:59:00;9.5;58.1
9666;DHT22;4871;52.004;5.924;2023-04-28T04:00:00;9.5;58.1
9666;DHT22;4871;52.004;5.924;2023-04-28T04:01:00;9.5;58.1
9666;DHT22;4871;52.004;5.924;2023-04-28T04:02:00;9.5;58.1
9666;DHT22;4871;52.004;5.924;2023-04-28T04:03:00;9.5;58.1
9666;DHT22;4871;52.004;5.924;2023-04-28T04:04:00;9.5;58.1
9666;DHT22;4871;52.004;5.924;2023-04-28T04:05:00;9.5;58.2
9666;DHT22;4871;52.004;5.924;2023-04-28T04:06:01;9.5;58.2
9666;DHT22;4871;52.004;5.924;2023-04-28T04:07:01;9.5;58.2
9666;DHT22;4871;52.004;5.924;2023-04-28T04:08:02;9.5;58.1
9666;DHT22;4871;52.004;5.924;2023-04-28T04:09:00;9.5;58.3
9666;DHT22;4871;52.004;5.924;2023-04-28T04:10:00;9.5;58.1
9666;DHT22;4871;52.004;5.924;2023-04-28T04:11:00;9.5;58.3
9666;DHT22;4871;52.004;5.924;2023-04-28T04:12:00;9.5;58.2
9666;DHT22;4871;52.004;5.924;2023-04-28T04:13:00;9.5;58.2
9666;DHT22;4871;52.004;5.924;2023-04-28T04:14:00;9.5;58.1
9666;DHT22;4871;52.004;5.924;2023-04-28T04:15:00;9.5;58.3
9666;DHT22;4871;52.004;5.924;2023-04-28T04:16:00;9.5;58.2
9666;DHT22;4871;52.004;5.924;2023-04-28T04:17:00;9.5;58.4
9666;DHT22;4871;52.004;5.924;2023-04-28T04:18:00;9.5;58.4
9666;DHT22;4871;52.004;5.924;2023-04-28T04:19:00;9.5;58.2
9666;DHT22;4871;52.004;5.924;2023-04-28T04:20:00;9.5;58.4
9666;DHT22;4871;52.004;5.924;2023-04-28T04:21:00;9.5;58.3
9666;DHT22;4871;52.004;5.924;2023-04-28T04:22:00;9.5;58.2
9666;DHT22;4871;52.004;5.924;2023-04-28T04:23:01;9.5;58.2
9666;DHT22;4871;52.004;5.924;2023-04-28T04:24:00;9.5;58.4
9666;DHT22;4871;52.004;5.924;2023-04-28T04:25:00;9.5;58.3
9666;DHT22;4871;52.004;5.924;2023-04-28T04:26:00;9.5;58.3
9666;DHT22;4871;52.004;5.924;2023-04-28T04:27:00;9.5;58.1
9666;DHT22;4871;52.004;5.924;2023-04-28T04:28:00;9.5;58.4
9666;DHT22;4871;52.004;5.924;2023-04-28T04:29:00;9.5;58.2
9666;DHT22;4871;52.004;5.924;2023-04-28T04:30:01;9.5;58.3
9666;DHT22;4871;52.004;5.924;2023-04-28T04:31:01;9.5;58.4
9666;DHT22;4871;52.004;5.924;2023-04-28T04:32:00;9.5;58.4
9666;DHT22;4871;52.004;5.924;2023-04-28T04:33:00;9.5;58.3
9666;DHT22;4871;52.004;5.924;2023-04-28T04:34:00;9.5;58.4
9666;DHT22;4871;52.004;5.924;2023-04-28T04:35:00;9.5;58.5
9666;DHT22;4871;52.004;5.924;2023-04-28T04:36:00;9.5;58.3
9666;DHT22;4871;52.004;5.924;2023-04-28T04:37:00;9.5;58.5
9666;DHT22;4871;52.004;5.924;2023-04-28T04:38:01;9.5;58.5
9666;DHT22;4871;52.004;5.924;2023-04-28T04:39:00;9.5;58.5
9666;DHT22;4871;52.004;5.924;2023-04-28T04:40:00;9.5;58.5
9666;DHT22;4871;52.004;5.924;2023-04-28T04:41:00;9.5;58.4
9666;DHT22;4871;52.004;5.924;2023-04-28T04:42:01;9.5;58.3
9666;DHT22;4871;52.004;5.924;2023-04-28T04:43:00;9.5;58.4
9666;DHT22;4871;52.004;5.924;2023-04-28T04:44:00;9.5;58.5
9666;DHT22;4871;52.004;5.924;2023-04-28T04:45:00;9.5;58.5
9666;DHT22;4871;52.004;5.924;2023-04-28T04:46:02;9.5;58.6
9666;DHT22;4871;52.004;5.924;2023-04-28T04:47:01;9.5;58.6
9666;DHT22;4871;52.004;5.924;2023-04-28T04:48:00;9.5;58.5
9666;DHT22;4871;52.004;5.924;2023-04-28T04:49:00;9.4;58.5
9666;DHT22;4871;52.004;5.924;2023-04-28T04:50:00;9.4;58.6
9666;DHT22;4871;52.004;5.924;2023-04-28T04:51:01;9.5;58.7
9666;DHT22;4871;52.004;5.924;2023-04-28T04:52:00;9.4;58.7
9666;DHT22;4871;52.004;5.924;2023-04-28T04:53:00;9.5;58.6
9666;DHT22;4871;52.004;5.924;2023-04-28T04:54:00;9.5;58.7
9666;DHT22;4871;52.004;5.924;2023-04-28T04:55:00;9.5;58.7
9666;DHT22;4871;52.004;5.924;2023-04-28T04:56:00;9.5;58.7
9666;DHT22;4871;52.004;5.924;2023-04-28T04:57:01;9.5;58.8
9666;DHT22;4871;52.004;5.924;2023-04-28T04:58:00;9.5;58.6
9666;DHT22;4871;52.004;5.924;2023-04-28T04:59:01;9.5;58.6
9666;DHT22;4871;52.004;5.924;2023-04-28T05:00:00;9.5;58.8
9666;DHT22;4871;52.004;5.924;2023-04-28T05:01:00;9.4;58.9
9666;DHT22;4871;52.004;5.924;2023-04-28T05:02:00;9.4;58.8
9666;DHT22;4871;52.004;5.924;2023-04-28T05:03:00;9.5;59.0
9666;DHT22;4871;52.004;5.924;2023-04-28T05:04:00;9.4;59.0
9666;DHT22;4871;52.004;5.924;2023-04-28T05:05:00;9.5;58.9
9666;DHT22;4871;52.004;5.924;2023-04-28T05:06:02;9.5;58.8
9666;DHT22;4871;52.004;5.924;2023-04-28T05:07:00;9.5;58.9
9666;DHT22;4871;52.004;5.924;2023-04-28T05:08:01;9.5;58.9
9666;DHT22;4871;52.004;5.924;2023-04-28T05:09:00;9.5;58.8
9666;DHT22;4871;52.004;5.924;2023-04-28T05:10:00;9.5;58.8
9666;DHT22;4871;52.004;5.924;2023-04-28T05:11:00;9.5;59.0
9666;DHT22;4871;52.004;5.924;2023-04-28T05:12:00;9.5;59.2
9666;DHT22;4871;52.004;5.924;2023-04-28T05:13:00;9.5;59.2
9666;DHT22;4871;52.004;5.924;2023-04-28T05:14:00;9.5;59.2
9666;DHT22;4871;52.004;5.924;2023-04-28T05:15:00;9.5;59.2
9666;DHT22;4871;52.004;5.924;2023-04-28T05:16:00;9.5;59.1
9666;DHT22;4871;52.004;5.924;2023-04-28T05:17:00;9.5;59.2
9666;DHT22;4871;52.004;5.924;2023-04-28T05:18:05;9.5;59.0
9666;DHT22;4871;52.004;5.924;2023-04-28T05:19:00;9.5;59.2
9666;DHT22;4871;52.004;5.924;2023-04-28T05:20:00;9.5;59.1
9666;DHT22;4871;52.004;5.924;2023-04-28T05:21:00;9.5;59.3
9666;DHT22;4871;52.004;5.924;2023-04-28T05:22:01;9.5;59.1
9666;DHT22;4871;52.004;5.924;2023-04-28T05:23:01;9.5;59.3
9666;DHT22;4871;52.004;5.924;2023-04-28T05:24:00;9.5;59.5
9666;DHT22;4871;52.004;5.924;2023-04-28T05:25:00;9.5;59.4
9666;DHT22;4871;52.004;5.924;2023-04-28T05:26:00;9.5;59.3
9666;DHT22;4871;52.004;5.924;2023-04-28T05:27:00;9.6;59.4
9666;DHT22;4871;52.004;5.924;2023-04-28T05:28:08;9.6;59.2
9666;DHT22;4871;52.004;5.924;2023-04-28T05:29:00;9.6;59.3
9666;DHT22;4871;52.004;5.924;2023-04-28T05:30:00;9.6;59.2
9666;DHT22;4871;52.004;5.924;2023-04-28T05:31:00;9.6;59.3
9666;DHT22;4871;52.004;5.924;2023-04-28T05:32:01;9.6;59.0
9666;DHT22;4871;52.004;5.924;2023-04-28T05:33:00;9.6;59.3
9666;DHT22;4871;52.004;5.924;2023-04-28T05:34:00;9.6;59.3
9666;DHT22;4871;52.004;5.924;2023-04-28T05:35:01;9.6;59.4
9666;DHT22;4871;52.004;5.924;2023-04-28T05:36:00;9.6;59.3
9666;DHT22;4871;52.004;5.924;2023-04-28T05:37:00;9.6;59.3
9666;DHT22;4871;52.004;5.924;2023-04-28T05:38:00;9.6;59.3
9666;DHT22;4871;52.004;5.924;2023-04-28T05:39:00;9.6;60.1
9666;DHT22;4871;52.004;5.924;2023-04-28T05:40:00;9.6;59.4
9666;DHT22;4871;52.004;5.924;2023-04-28T05:41:00;9.6;59.3
9666;DHT22;4871;52.004;5.924;2023-04-28T05:42:00;9.7;59.2
9666;DHT22;4871;52.004;5.924;2023-04-28T05:43:00;9.7;59.3
9666;DHT22;4871;52.004;5.924;2023-04-28T05:44:00;9.7;59.4
9666;DHT22;4871;52.004;5.924;2023-04-28T05:45:01;9.7;59.2
9666;DHT22;4871;52.004;5.924;2023-04-28T05:46:00;9.7;59.7
9666;DHT22;4871;52.004;5.924;2023-04-28T05:47:00;9.7;59.5
9666;DHT22;4871;52.004;5.924;2023-04-28T05:48:00;9.7;59.4
9666;DHT22;4871;52.004;5.924;2023-04-28T05:49:00;9.7;59.1
9666;DHT22;4871;52.004;5.924;2023-04-28T05:50:00;9.7;59.4
9666;DHT22;4871;52.004;5.924;2023-04-28T05:51:00;9.7;59.3
9666;DHT22;4871;52.004;5.924;2023-04-28T05:52:00;9.8;59.2
9666;DHT22;4871;52.004;5.924;2023-04-28T05:53:00;9.8;59.1
9666;DHT22;4871;52.004;5.924;2023-04-28T05:54:00;9.7;59.2
9666;DHT22;4871;52.004;5.924;2023-04-28T05:55:00;9.8;59.1
9666;DHT22;4871;52.004;5.924;2023-04-28T05:56:00;9.8;59.3
9666;DHT22;4871;52.004;5.924;2023-04-28T05:57:01;9.8;59.3
9666;DHT22;4871;52.004;5.924;2023-04-28T05:58:00;9.8;59.2
9666;DHT22;4871;52.004;5.924;2023-04-28T05:59:03;9.8;59.8
9666;DHT22;4871;52.004;5.924;2023-04-28T06:00:00;9.9;59.9
9666;DHT22;4871;52.004;5.924;2023-04-28T06:01:00;9.9;59.0
9666;DHT22;4871;52.004;5.924;2023-04-28T06:02:00;9.9;59.3
9666;DHT22;4871;52.004;5.924;2023-04-28T06:03:00;9.8;59.4
9666;DHT22;4871;52.004;5.924;2023-04-28T06:04:00;9.8;58.7
9666;DHT22;4871;52.004;5.924;2023-04-28T06:05:00;9.8;59.1
9666;DHT22;4871;52.004;5.924;2023-04-28T06:06:00;9.9;59.4
9666;DHT22;4871;52.004;5.924;2023-04-28T06:07:00;9.8;59.4
9666;DHT22;4871;52.004;5.924;2023-04-28T06:08:02;9.9;59.2
9666;DHT22;4871;52.004;5.924;2023-04-28T06:09:01;9.9;59.3
9666;DHT22;4871;52.004;5.924;2023-04-28T06:10:00;9.9;59.1
9666;DHT22;4871;52.004;5.924;2023-04-28T06:11:00;9.9;59.2
9666;DHT22;4871;52.004;5.924;2023-04-28T06:12:00;9.9;58.5
9666;DHT22;4871;52.004;5.924;2023-04-28T06:13:01;9.9;59.0
9666;DHT22;4871;52.004;5.924;2023-04-28T06:14:00;9.9;58.7
9666;DHT22;4871;52.004;5.924;2023-04-28T06:15:00;9.9;58.9
9666;DHT22;4871;52.004;5.924;2023-04-28T06:16:00;9.9;59.0
9666;DHT22;4871;52.004;5.924;2023-04-28T06:17:00;10.0;58.5
9666;DHT22;4871;52.004;5.924;2023-04-28T06:18:00;10.0;59.3
9666;DHT22;4871;52.004;5.924;2023-04-28T06:19:00;10.0;58.7
9666;DHT22;4871;52.004;5.924;2023-04-28T06:20:00;10.0;59.2
9666;DHT22;4871;52.004;5.924;2023-04-28T06:21:00;10.0;59.0
9666;DHT22;4871;52.004;5.924;2023-04-28T06:22:00;10.0;59.2
9666;DHT22;4871;52.004;5.924;2023-04-28T06:23:00;10.0;59.1
9666;DHT22;4871;52.004;5.924;2023-04-28T06:24:01;10.0;60.3
9666;DHT22;4871;52.004;5.924;2023-04-28T06:25:00;10.0;59.1
9666;DHT22;4871;52.004;5.924;2023-04-28T06:26:00;10.0;59.1
9666;DHT22;4871;52.004;5.924;2023-04-28T06:27:01;10.0;58.9
9666;DHT22;4871;52.004;5.924;2023-04-28T06:28:00;10.0;59.2
9666;DHT22;4871;52.004;5.924;2023-04-28T06:29:00;10.0;59.1
9666;DHT22;4871;52.004;5.924;2023-04-28T06:30:00;10.0;59.4
9666;DHT22;4871;52.004;5.924;2023-04-28T06:31:00;10.0;59.6
9666;DHT22;4871;52.004;5.924;2023-04-28T06:32:00;10.0;59.1
9666;DHT22;4871;52.004;5.924;2023-04-28T06:33:00;10.0;59.3
9666;DHT22;4871;52.004;5.924;2023-04-28T06:34:00;10.0;59.2
9666;DHT22;4871;52.004;5.924;2023-04-28T06:35:00;10.0;59.5
9666;DHT22;4871;52.004;5.924;2023-04-28T06:36:00;10.0;59.5
9666;DHT22;4871;52.004;5.924;2023-04-28T06:37:00;10.0;59.2
9666;DHT22;4871;52.004;5.924;2023-04-28T06:38:01;10.1;59.4
9666;DHT22;4871;52.004;5.924;2023-04-28T06:39:01;10.1;59.2
9666;DHT22;4871;52.004;5.924;2023-04-28T06:40:00;10.1;59.2
9666;DHT22;4871;52.004;5.924;2023-04-28T06:41:00;10.1;59.5
9666;DHT22;4871;52.004;5.924;2023-04-28T06:42:01;10.1;59.4
9666;DHT22;4871;52.004;5.924;2023-04-28T06:43:00;10.1;59.1
9666;DHT22;4871;52.004;5.924;2023-04-28T06:44:00;10.1;59.1
9666;DHT22;4871;52.004;5.924;2023-04-28T06:45:00;10.2;59.3
9666;DHT22;4871;52.004;5.924;2023-04-28T06:46:00;10.2;59.5
9666;DHT22;4871;52.004;5.924;2023-04-28T06:47:00;10.2;59.4
9666;DHT22;4871;52.004;5.924;2023-04-28T06:48:00;10.2;59.4